Flight Number: EUR2141 Duration: 1:30
Departure: Munich Int'l (EDDM) at 06:30 Distance: 420 Nm
Arrival: Warsaw Okecie (EPWA) at 08:00 Equipment: CRJ700

Weather Information
Munchen, Germany (EDDM) 48-21N 011-47E Nov 18, 2017 - 06:50 AM EST / 2017.11.18 1150 UTC
Wind: from the W (260 degrees) at 8 MPH (7 KT):0
Visibility: 4 mile(s):0
Sky conditions: mostly cloudy Temperature: 39 F (4 C) Dew Point: 35 F (2 C) Relative Humidity: 86% Pressure (altimeter): 30.15 in. Hg (1021 hPa)
ob: EDDM 181150Z 26007KT 8000 BKN007 BKN030 04/02 Q1021 BECMG BKN015 cycle: 12
Sunrise: 06:29 Sunset: 15:26 (UTC)

Warszawa-Okecie, Poland (EPWA) 52-10N 020-58E 107M Nov 18, 2017 - 07:00 AM EST / 2017.11.18 1200 UTC
Wind: from the WSW (240 degrees) at 8 MPH (7 KT) (direction variable):0
Visibility: greater than 7 mile(s):0
Sky conditions: mostly cloudy Temperature: 42 F (6 C) Dew Point: 32 F (0 C) Relative Humidity: 65% Pressure (altimeter): 29.97 in. Hg (1015 hPa)
ob: EPWA 181200Z 24007KT 200V270 9999 SCT025 BKN040 06/00 Q1015 NOSIG cycle: 12
Sunrise: 06:07 Sunset: 14:35 (UTC)

TAF:2017/11/18 12:33 TAF TAF EPWA 181130Z 1812/1912 22010KT 9999 SCT015 BKN025 BECMG 1820/1822 4000 -RADZ BR BKN012 TEMPO 1822/1906 2500 RA BR BKN005 BECMG 1906/1908 9999 BKN020 TEMPO 1906/1912 -SHRA BKN008 BKN012CB

Previous Pireps for this route
Date Aircraft Flight time Fuel used Landing rate On time
2012-11-19MD-8101.279062-364Yes
2012-12-15MD-8101.329598-524Yes
2013-08-23CRJ7001.2985760No
2013-08-25MD-8101.3912481-462Yes
2013-09-17CRJ7001.2158600No
2014-01-03MD-8101.178608-286Yes
2014-01-19MD-8101.4310119-328No
2014-05-28MD-8101.199236-302Yes
2015-04-10CRJ7001.1543170No
2015-04-17CRJ7001.2446110Yes
2015-05-06CRJ7001.1638430Yes
2015-05-10CRJ7001.1041270Yes
2015-05-26CRJ7001.1639120Yes
2015-08-08B73701.165374-193Charter
2016-01-13B73701.3815525-191Charter
2016-05-07CRJ7001.2035380Yes
2016-10-08CRJ7001.1642220Yes
(pireps marked green are flown by you)

Route map